sensor_id;sensor_type;location;lat;lon;timestamp;temperature;humidity
18002;DHT22;9126;48.160;17.130;2022-08-19T00:01:23;29.30;41.10
18002;DHT22;9126;48.160;17.130;2022-08-19T00:03:50;29.20;41.20
18002;DHT22;9126;48.160;17.130;2022-08-19T00:06:17;29.20;41.40
18002;DHT22;9126;48.160;17.130;2022-08-19T00:08:45;29.10;41.60
18002;DHT22;9126;48.160;17.130;2022-08-19T00:11:13;29.00;41.90
18002;DHT22;9126;48.160;17.130;2022-08-19T00:13:43;28.90;42.00
18002;DHT22;9126;48.160;17.130;2022-08-19T00:16:11;28.80;42.20
18002;DHT22;9126;48.160;17.130;2022-08-19T00:18:38;28.80;42.40
18002;DHT22;9126;48.160;17.130;2022-08-19T00:21:05;28.70;42.50
18002;DHT22;9126;48.160;17.130;2022-08-19T00:23:33;28.70;42.70
18002;DHT22;9126;48.160;17.130;2022-08-19T00:26:02;28.60;42.70
18002;DHT22;9126;48.160;17.130;2022-08-19T00:28:31;28.50;42.90
18002;DHT22;9126;48.160;17.130;2022-08-19T00:30:58;28.30;43.10
18002;DHT22;9126;48.160;17.130;2022-08-19T00:33:27;28.30;43.20
18002;DHT22;9126;48.160;17.130;2022-08-19T00:35:55;28.30;43.20
18002;DHT22;9126;48.160;17.130;2022-08-19T00:38:25;28.20;43.30
18002;DHT22;9126;48.160;17.130;2022-08-19T00:40:52;28.20;43.50
18002;DHT22;9126;48.160;17.130;2022-08-19T00:43:22;28.10;43.60
18002;DHT22;9126;48.160;17.130;2022-08-19T00:45:51;28.10;43.80
18002;DHT22;9126;48.160;17.130;2022-08-19T00:48:19;28.00;43.90
18002;DHT22;9126;48.160;17.130;2022-08-19T00:50:49;28.00;44.10
18002;DHT22;9126;48.160;17.130;2022-08-19T00:53:20;27.90;44.20
18002;DHT22;9126;48.160;17.130;2022-08-19T00:55:50;27.80;44.30
18002;DHT22;9126;48.160;17.130;2022-08-19T00:58:20;27.80;44.40
18002;DHT22;9126;48.160;17.130;2022-08-19T01:00:47;27.80;44.50
18002;DHT22;9126;48.160;17.130;2022-08-19T01:03:18;27.70;44.50
18002;DHT22;9126;48.160;17.130;2022-08-19T01:05:47;27.70;44.60
18002;DHT22;9126;48.160;17.130;2022-08-19T01:08:16;27.70;44.70
18002;DHT22;9126;48.160;17.130;2022-08-19T01:10:47;27.60;44.80
18002;DHT22;9126;48.160;17.130;2022-08-19T01:13:15;27.50;45.10
18002;DHT22;9126;48.160;17.130;2022-08-19T01:15:45;27.30;45.30
18002;DHT22;9126;48.160;17.130;2022-08-19T01:18:17;27.30;45.40
18002;DHT22;9126;48.160;17.130;2022-08-19T01:20:44;27.20;45.50
18002;DHT22;9126;48.160;17.130;2022-08-19T01:23:13;27.20;45.50
18002;DHT22;9126;48.160;17.130;2022-08-19T01:25:43;27.10;45.60
18002;DHT22;9126;48.160;17.130;2022-08-19T01:28:16;27.10;45.70
18002;DHT22;9126;48.160;17.130;2022-08-19T01:30:43;27.20;45.80
18002;DHT22;9126;48.160;17.130;2022-08-19T01:33:11;27.20;45.60
18002;DHT22;9126;48.160;17.130;2022-08-19T01:35:39;27.30;45.60
18002;DHT22;9126;48.160;17.130;2022-08-19T01:38:09;27.20;45.60
18002;DHT22;9126;48.160;17.130;2022-08-19T01:40:39;27.10;45.70
18002;DHT22;9126;48.160;17.130;2022-08-19T01:43:07;27.10;45.80
18002;DHT22;9126;48.160;17.130;2022-08-19T01:45:36;27.10;45.80
18002;DHT22;9126;48.160;17.130;2022-08-19T01:48:06;27.20;45.80
18002;DHT22;9126;48.160;17.130;2022-08-19T01:50:34;27.20;45.70
18002;DHT22;9126;48.160;17.130;2022-08-19T01:53:03;27.20;45.60
18002;DHT22;9126;48.160;17.130;2022-08-19T01:55:30;27.20;45.50
18002;DHT22;9126;48.160;17.130;2022-08-19T01:58:02;27.30;45.60
18002;DHT22;9126;48.160;17.130;2022-08-19T02:00:30;27.30;45.50
18002;DHT22;9126;48.160;17.130;2022-08-19T02:02:58;27.40;45.40
18002;DHT22;9126;48.160;17.130;2022-08-19T02:05:27;27.40;45.40
18002;DHT22;9126;48.160;17.130;2022-08-19T02:07:55;27.30;45.20
18002;DHT22;9126;48.160;17.130;2022-08-19T02:10:22;27.30;45.20
18002;DHT22;9126;48.160;17.130;2022-08-19T02:12:50;27.40;45.20
18002;DHT22;9126;48.160;17.130;2022-08-19T02:15:20;27.40;45.20
18002;DHT22;9126;48.160;17.130;2022-08-19T02:17:47;27.40;45.10
18002;DHT22;9126;48.160;17.130;2022-08-19T02:20:15;27.50;45.10
18002;DHT22;9126;48.160;17.130;2022-08-19T02:22:43;27.40;44.90
18002;DHT22;9126;48.160;17.130;2022-08-19T02:25:12;27.40;44.90
18002;DHT22;9126;48.160;17.130;2022-08-19T02:27:39;27.40;44.90
18002;DHT22;9126;48.160;17.130;2022-08-19T02:30:11;27.40;44.90
18002;DHT22;9126;48.160;17.130;2022-08-19T02:32:41;27.40;44.80
18002;DHT22;9126;48.160;17.130;2022-08-19T02:35:09;27.30;44.80
18002;DHT22;9126;48.160;17.130;2022-08-19T02:37:36;27.30;44.80
18002;DHT22;9126;48.160;17.130;2022-08-19T02:40:23;27.30;44.80
18002;DHT22;9126;48.160;17.130;2022-08-19T02:42:50;27.40;44.80
18002;DHT22;9126;48.160;17.130;2022-08-19T02:45:18;27.30;44.70
18002;DHT22;9126;48.160;17.130;2022-08-19T02:47:47;27.30;44.70
18002;DHT22;9126;48.160;17.130;2022-08-19T02:50:14;27.30;44.70
18002;DHT22;9126;48.160;17.130;2022-08-19T02:52:41;27.40;44.70
18002;DHT22;9126;48.160;17.130;2022-08-19T02:55:08;27.40;44.70
18002;DHT22;9126;48.160;17.130;2022-08-19T02:57:35;27.40;44.70
18002;DHT22;9126;48.160;17.130;2022-08-19T03:00:04;27.40;44.70
18002;DHT22;9126;48.160;17.130;2022-08-19T03:02:32;27.30;44.70
18002;DHT22;9126;48.160;17.130;2022-08-19T03:05:02;27.30;44.70
18002;DHT22;9126;48.160;17.130;2022-08-19T03:07:29;27.30;44.70
18002;DHT22;9126;48.160;17.130;2022-08-19T03:09:57;27.30;44.70
18002;DHT22;9126;48.160;17.130;2022-08-19T03:12:24;27.30;44.60
18002;DHT22;9126;48.160;17.130;2022-08-19T03:14:52;27.30;44.50
18002;DHT22;9126;48.160;17.130;2022-08-19T03:17:19;27.30;44.50
18002;DHT22;9126;48.160;17.130;2022-08-19T03:19:46;27.30;44.50
18002;DHT22;9126;48.160;17.130;2022-08-19T03:22:14;27.30;44.50
18002;DHT22;9126;48.160;17.130;2022-08-19T03:24:42;27.30;44.50
18002;DHT22;9126;48.160;17.130;2022-08-19T03:27:09;27.30;44.60
18002;DHT22;9126;48.160;17.130;2022-08-19T03:29:37;27.30;45.20
18002;DHT22;9126;48.160;17.130;2022-08-19T03:32:05;27.30;44.60
18002;DHT22;9126;48.160;17.130;2022-08-19T03:34:34;27.20;44.60
18002;DHT22;9126;48.160;17.130;2022-08-19T03:37:05;27.10;44.70
18002;DHT22;9126;48.160;17.130;2022-08-19T03:39:35;27.10;44.80
18002;DHT22;9126;48.160;17.130;2022-08-19T03:42:04;27.10;44.80
18002;DHT22;9126;48.160;17.130;2022-08-19T03:44:32;27.10;44.80
18002;DHT22;9126;48.160;17.130;2022-08-19T03:46:59;27.00;44.90
18002;DHT22;9126;48.160;17.130;2022-08-19T03:49:29;27.00;45.00
18002;DHT22;9126;48.160;17.130;2022-08-19T03:51:57;27.00;45.00
18002;DHT22;9126;48.160;17.130;2022-08-19T03:54:36;27.00;45.10
18002;DHT22;9126;48.160;17.130;2022-08-19T03:57:06;27.00;45.20
18002;DHT22;9126;48.160;17.130;2022-08-19T03:59:39;26.90;45.20
18002;DHT22;9126;48.160;17.130;2022-08-19T04:02:10;26.80;45.30
18002;DHT22;9126;48.160;17.130;2022-08-19T04:04:38;26.70;45.50
18002;DHT22;9126;48.160;17.130;2022-08-19T04:07:06;26.50;45.70
18002;DHT22;9126;48.160;17.130;2022-08-19T04:09:35;26.40;45.80
18002;DHT22;9126;48.160;17.130;2022-08-19T04:12:04;26.30;46.10
18002;DHT22;9126;48.160;17.130;2022-08-19T04:14:32;26.20;46.30
18002;DHT22;9126;48.160;17.130;2022-08-19T04:17:02;26.20;46.50
18002;DHT22;9126;48.160;17.130;2022-08-19T04:19:30;26.20;46.50
18002;DHT22;9126;48.160;17.130;2022-08-19T04:21:58;26.40;46.50
18002;DHT22;9126;48.160;17.130;2022-08-19T04:24:25;26.50;46.40
18002;DHT22;9126;48.160;17.130;2022-08-19T04:26:54;26.60;46.30
18002;DHT22;9126;48.160;17.130;2022-08-19T04:29:23;26.70;46.20
18002;DHT22;9126;48.160;17.130;2022-08-19T04:31:51;26.70;46.10
18002;DHT22;9126;48.160;17.130;2022-08-19T04:34:20;26.70;46.10
18002;DHT22;9126;48.160;17.130;2022-08-19T04:36:51;26.80;46.20
18002;DHT22;9126;48.160;17.130;2022-08-19T04:39:19;26.80;46.00
18002;DHT22;9126;48.160;17.130;2022-08-19T04:41:47;26.90;46.00
18002;DHT22;9126;48.160;17.130;2022-08-19T04:44:34;27.00;45.90
18002;DHT22;9126;48.160;17.130;2022-08-19T04:47:03;27.00;45.90
18002;DHT22;9126;48.160;17.130;2022-08-19T04:49:31;27.10;45.80
18002;DHT22;9126;48.160;17.130;2022-08-19T04:51:58;27.30;45.80
18002;DHT22;9126;48.160;17.130;2022-08-19T04:54:25;27.40;45.70
18002;DHT22;9126;48.160;17.130;2022-08-19T04:56:53;27.40;45.60
18002;DHT22;9126;48.160;17.130;2022-08-19T04:59:21;27.50;45.50
18002;DHT22;9126;48.160;17.130;2022-08-19T05:01:49;27.60;45.40
18002;DHT22;9126;48.160;17.130;2022-08-19T05:04:18;27.80;45.40
18002;DHT22;9126;48.160;17.130;2022-08-19T05:06:46;27.90;45.30
18002;DHT22;9126;48.160;17.130;2022-08-19T05:09:15;27.90;45.20
18002;DHT22;9126;48.160;17.130;2022-08-19T05:11:43;27.80;45.10
18002;DHT22;9126;48.160;17.130;2022-08-19T05:14:10;27.90;45.20
18002;DHT22;9126;48.160;17.130;2022-08-19T05:16:38;27.90;45.20
18002;DHT22;9126;48.160;17.130;2022-08-19T05:19:07;27.90;45.30
18002;DHT22;9126;48.160;17.130;2022-08-19T05:21:52;28.00;45.20
18002;DHT22;9126;48.160;17.130;2022-08-19T05:24:37;28.10;45.20
18002;DHT22;9126;48.160;17.130;2022-08-19T05:27:06;28.20;45.20
18002;DHT22;9126;48.160;17.130;2022-08-19T05:29:34;28.30;45.20
18002;DHT22;9126;48.160;17.130;2022-08-19T05:32:02;28.30;45.20
18002;DHT22;9126;48.160;17.130;2022-08-19T05:34:32;28.50;45.10
18002;DHT22;9126;48.160;17.130;2022-08-19T05:37:00;28.60;44.90
18002;DHT22;9126;48.160;17.130;2022-08-19T05:39:29;28.80;44.80
18002;DHT22;9126;48.160;17.130;2022-08-19T05:41:59;29.00;44.70
18002;DHT22;9126;48.160;17.130;2022-08-19T05:44:29;29.10;44.50
18002;DHT22;9126;48.160;17.130;2022-08-19T05:46:57;29.20;44.30
18002;DHT22;9126;48.160;17.130;2022-08-19T05:49:26;29.30;44.10
18002;DHT22;9126;48.160;17.130;2022-08-19T05:51:55;29.40;44.50
18002;DHT22;9126;48.160;17.130;2022-08-19T05:54:23;29.50;43.90
18002;DHT22;9126;48.160;17.130;2022-08-19T05:56:52;29.60;43.70
18002;DHT22;9126;48.160;17.130;2022-08-19T05:59:20;29.80;43.50
18002;DHT22;9126;48.160;17.130;2022-08-19T06:01:52;29.90;43.30
18002;DHT22;9126;48.160;17.130;2022-08-19T06:04:21;29.90;43.20
18002;DHT22;9126;48.160;17.130;2022-08-19T06:06:53;30.00;43.00
18002;DHT22;9126;48.160;17.130;2022-08-19T06:09:29;30.20;43.00
18002;DHT22;9126;48.160;17.130;2022-08-19T06:11:58;30.30;42.80
18002;DHT22;9126;48.160;17.130;2022-08-19T06:14:28;30.40;42.60
18002;DHT22;9126;48.160;17.130;2022-08-19T06:16:56;30.50;42.40
18002;DHT22;9126;48.160;17.130;2022-08-19T06:19:25;30.50;42.30
18002;DHT22;9126;48.160;17.130;2022-08-19T06:21:57;30.40;42.20
18002;DHT22;9126;48.160;17.130;2022-08-19T06:24:26;30.50;42.10
18002;DHT22;9126;48.160;17.130;2022-08-19T06:26:57;30.40;42.00
18002;DHT22;9126;48.160;17.130;2022-08-19T06:29:26;30.40;42.00
18002;DHT22;9126;48.160;17.130;2022-08-19T06:31:56;30.50;42.10
18002;DHT22;9126;48.160;17.130;2022-08-19T06:34:24;30.50;42.00
18002;DHT22;9126;48.160;17.130;2022-08-19T06:36:54;30.60;42.00
18002;DHT22;9126;48.160;17.130;2022-08-19T06:39:23;30.70;41.80
18002;DHT22;9126;48.160;17.130;2022-08-19T06:41:53;30.80;41.70
18002;DHT22;9126;48.160;17.130;2022-08-19T06:44:24;30.90;41.50
18002;DHT22;9126;48.160;17.130;2022-08-19T06:46:52;30.80;41.20
18002;DHT22;9126;48.160;17.130;2022-08-19T06:49:19;30.90;41.20
18002;DHT22;9126;48.160;17.130;2022-08-19T06:51:47;30.80;41.10
18002;DHT22;9126;48.160;17.130;2022-08-19T06:54:15;30.80;41.10
18002;DHT22;9126;48.160;17.130;2022-08-19T06:56:43;30.80;41.10
18002;DHT22;9126;48.160;17.130;2022-08-19T06:59:13;30.90;41.10
18002;DHT22;9126;48.160;17.130;2022-08-19T07:01:45;31.10;41.00
18002;DHT22;9126;48.160;17.130;2022-08-19T07:04:13;31.00;40.80
18002;DHT22;9126;48.160;17.130;2022-08-19T07:06:42;31.00;40.90
18002;DHT22;9126;48.160;17.130;2022-08-19T07:09:11;30.80;41.10
18002;DHT22;9126;48.160;17.130;2022-08-19T07:11:41;30.80;41.50
18002;DHT22;9126;48.160;17.130;2022-08-19T07:14:10;31.00;41.80
18002;DHT22;9126;48.160;17.130;2022-08-19T07:16:37;31.20;42.40
18002;DHT22;9126;48.160;17.130;2022-08-19T07:19:05;31.20;41.80
18002;DHT22;9126;48.160;17.130;2022-08-19T07:21:33;31.20;42.00
18002;DHT22;9126;48.160;17.130;2022-08-19T07:24:00;30.80;42.20
18002;DHT22;9126;48.160;17.130;2022-08-19T07:26:29;30.80;42.50
18002;DHT22;9126;48.160;17.130;2022-08-19T07:28:58;30.90;42.60
18002;DHT22;9126;48.160;17.130;2022-08-19T07:31:28;30.90;42.70
18002;DHT22;9126;48.160;17.130;2022-08-19T07:33:56;30.80;42.80
18002;DHT22;9126;48.160;17.130;2022-08-19T07:36:27;30.80;42.80
18002;DHT22;9126;48.160;17.130;2022-08-19T07:38:59;30.80;42.90
18002;DHT22;9126;48.160;17.130;2022-08-19T07:41:28;30.80;43.00
18002;DHT22;9126;48.160;17.130;2022-08-19T07:44:00;30.90;43.20
18002;DHT22;9126;48.160;17.130;2022-08-19T07:46:29;31.20;43.00
18002;DHT22;9126;48.160;17.130;2022-08-19T07:48:56;31.50;42.70
18002;DHT22;9126;48.160;17.130;2022-08-19T07:51:25;31.60;42.30
18002;DHT22;9126;48.160;17.130;2022-08-19T07:53:54;31.40;42.20
18002;DHT22;9126;48.160;17.130;2022-08-19T07:56:21;31.30;42.20
18002;DHT22;9126;48.160;17.130;2022-08-19T07:58:51;31.40;41.90
18002;DHT22;9126;48.160;17.130;2022-08-19T08:01:20;31.40;41.80
18002;DHT22;9126;48.160;17.130;2022-08-19T08:03:49;31.40;41.70
18002;DHT22;9126;48.160;17.130;2022-08-19T08:06:36;31.40;41.80
18002;DHT22;9126;48.160;17.130;2022-08-19T08:09:24;31.60;41.70
18002;DHT22;9126;48.160;17.130;2022-08-19T08:11:54;31.80;41.40
18002;DHT22;9126;48.160;17.130;2022-08-19T08:14:25;32.10;41.10
18002;DHT22;9126;48.160;17.130;2022-08-19T08:16:53;32.20;40.70
18002;DHT22;9126;48.160;17.130;2022-08-19T08:19:22;32.30;40.40
18002;DHT22;9126;48.160;17.130;2022-08-19T08:21:52;32.30;40.30
18002;DHT22;9126;48.160;17.130;2022-08-19T08:24:19;32.40;40.20
18002;DHT22;9126;48.160;17.130;2022-08-19T08:26:47;32.40;40.00
18002;DHT22;9126;48.160;17.130;2022-08-19T08:29:14;32.40;39.90
18002;DHT22;9126;48.160;17.130;2022-08-19T08:31:43;32.40;39.80
18002;DHT22;9126;48.160;17.130;2022-08-19T08:34:12;32.40;39.50
18002;DHT22;9126;48.160;17.130;2022-08-19T08:36:42;32.50;39.30
18002;DHT22;9126;48.160;17.130;2022-08-19T08:39:13;32.60;39.10
18002;DHT22;9126;48.160;17.130;2022-08-19T08:41:45;32.50;39.00
18002;DHT22;9126;48.160;17.130;2022-08-19T08:44:20;32.60;39.00
18002;DHT22;9126;48.160;17.130;2022-08-19T08:46:49;32.60;39.00
18002;DHT22;9126;48.160;17.130;2022-08-19T08:49:29;32.70;39.00
18002;DHT22;9126;48.160;17.130;2022-08-19T08:52:03;32.80;38.80
18002;DHT22;9126;48.160;17.130;2022-08-19T08:54:34;32.90;38.70
18002;DHT22;9126;48.160;17.130;2022-08-19T08:57:05;32.90;38.40
18002;DHT22;9126;48.160;17.130;2022-08-19T08:59:36;33.10;38.40
18002;DHT22;9126;48.160;17.130;2022-08-19T09:02:04;33.30;38.30
18002;DHT22;9126;48.160;17.130;2022-08-19T09:04:32;33.40;38.10
18002;DHT22;9126;48.160;17.130;2022-08-19T09:07:13;33.60;37.90
18002;DHT22;9126;48.160;17.130;2022-08-19T09:09:48;33.90;37.70
18002;DHT22;9126;48.160;17.130;2022-08-19T09:12:22;34.00;37.30
18002;DHT22;9126;48.160;17.130;2022-08-19T09:14:54;34.00;37.00
18002;DHT22;9126;48.160;17.130;2022-08-19T09:17:25;34.10;37.00
18002;DHT22;9126;48.160;17.130;2022-08-19T09:19:59;34.00;36.90
18002;DHT22;9126;48.160;17.130;2022-08-19T09:22:30;34.00;36.90
18002;DHT22;9126;48.160;17.130;2022-08-19T09:25:00;34.10;36.90
18002;DHT22;9126;48.160;17.130;2022-08-19T09:27:30;34.20;36.80
18002;DHT22;9126;48.160;17.130;2022-08-19T09:29:58;34.20;36.60
18002;DHT22;9126;48.160;17.130;2022-08-19T09:32:28;34.30;36.50
18002;DHT22;9126;48.160;17.130;2022-08-19T09:34:55;34.50;36.40
18002;DHT22;9126;48.160;17.130;2022-08-19T09:37:23;34.50;36.30
18002;DHT22;9126;48.160;17.130;2022-08-19T09:39:51;34.60;36.20
18002;DHT22;9126;48.160;17.130;2022-08-19T09:42:20;34.50;36.10
18002;DHT22;9126;48.160;17.130;2022-08-19T09:44:47;34.30;36.00
18002;DHT22;9126;48.160;17.130;2022-08-19T09:47:14;34.30;36.00
18002;DHT22;9126;48.160;17.130;2022-08-19T09:49:41;34.40;36.10
18002;DHT22;9126;48.160;17.130;2022-08-19T09:52:10;34.50;36.10
18002;DHT22;9126;48.160;17.130;2022-08-19T09:54:37;34.50;36.10
18002;DHT22;9126;48.160;17.130;2022-08-19T09:57:04;34.60;36.00
18002;DHT22;9126;48.160;17.130;2022-08-19T09:59:33;34.60;35.80
18002;DHT22;9126;48.160;17.130;2022-08-19T10:02:00;34.50;35.70
18002;DHT22;9126;48.160;17.130;2022-08-19T10:04:27;34.50;35.80
18002;DHT22;9126;48.160;17.130;2022-08-19T10:07:15;34.40;35.70
18002;DHT22;9126;48.160;17.130;2022-08-19T10:09:42;34.50;35.70
18002;DHT22;9126;48.160;17.130;2022-08-19T10:12:09;34.50;35.60
18002;DHT22;9126;48.160;17.130;2022-08-19T10:14:37;34.50;35.50
18002;DHT22;9126;48.160;17.130;2022-08-19T10:17:05;34.50;35.40
18002;DHT22;9126;48.160;17.130;2022-08-19T10:19:32;34.50;35.40
18002;DHT22;9126;48.160;17.130;2022-08-19T10:22:12;34.50;35.40
18002;DHT22;9126;48.160;17.130;2022-08-19T10:24:40;34.60;35.40
18002;DHT22;9126;48.160;17.130;2022-08-19T10:27:08;34.70;35.40
18002;DHT22;9126;48.160;17.130;2022-08-19T10:29:37;34.90;35.20
18002;DHT22;9126;48.160;17.130;2022-08-19T10:32:06;35.10;34.80
18002;DHT22;9126;48.160;17.130;2022-08-19T10:34:35;35.30;34.60
18002;DHT22;9126;48.160;17.130;2022-08-19T10:37:04;35.50;34.40
18002;DHT22;9126;48.160;17.130;2022-08-19T10:39:33;35.60;34.20
18002;DHT22;9126;48.160;17.130;2022-08-19T10:42:04;35.80;34.70
18002;DHT22;9126;48.160;17.130;2022-08-19T10:44:32;35.90;33.90
18002;DHT22;9126;48.160;17.130;2022-08-19T10:47:03;36.00;33.60
18002;DHT22;9126;48.160;17.130;2022-08-19T10:49:30;36.10;33.40
18002;DHT22;9126;48.160;17.130;2022-08-19T10:52:18;36.20;33.30
18002;DHT22;9126;48.160;17.130;2022-08-19T10:55:01;36.20;33.20
18002;DHT22;9126;48.160;17.130;2022-08-19T10:57:46;36.30;33.00
18002;DHT22;9126;48.160;17.130;2022-08-19T11:00:15;36.20;33.00
18002;DHT22;9126;48.160;17.130;2022-08-19T11:02:44;35.90;33.00
18002;DHT22;9126;48.160;17.130;2022-08-19T11:05:12;35.60;33.20
18002;DHT22;9126;48.160;17.130;2022-08-19T11:07:40;35.40;33.50
18002;DHT22;9126;48.160;17.130;2022-08-19T11:10:12;35.20;33.60
18002;DHT22;9126;48.160;17.130;2022-08-19T11:12:40;35.20;33.80
18002;DHT22;9126;48.160;17.130;2022-08-19T11:15:08;35.10;34.50
18002;DHT22;9126;48.160;17.130;2022-08-19T11:17:37;35.20;34.00
18002;DHT22;9126;48.160;17.130;2022-08-19T11:20:10;35.40;33.90
18002;DHT22;9126;48.160;17.130;2022-08-19T11:22:37;35.70;33.70
18002;DHT22;9126;48.160;17.130;2022-08-19T11:25:07;36.00;33.40
18002;DHT22;9126;48.160;17.130;2022-08-19T11:27:37;36.30;33.10
18002;DHT22;9126;48.160;17.130;2022-08-19T11:30:06;36.40;32.90
18002;DHT22;9126;48.160;17.130;2022-08-19T11:32:36;36.40;33.00
18002;DHT22;9126;48.160;17.130;2022-08-19T11:35:04;36.20;32.90
18002;DHT22;9126;48.160;17.130;2022-08-19T11:37:33;36.00;33.10
18002;DHT22;9126;48.160;17.130;2022-08-19T11:40:05;35.90;33.20
18002;DHT22;9126;48.160;17.130;2022-08-19T11:42:32;35.90;33.30
18002;DHT22;9126;48.160;17.130;2022-08-19T11:45:17;35.80;33.80
18002;DHT22;9126;48.160;17.130;2022-08-19T11:47:44;35.70;33.30
18002;DHT22;9126;48.160;17.130;2022-08-19T11:50:12;35.60;33.30
18002;DHT22;9126;48.160;17.130;2022-08-19T11:52:41;35.60;33.40
18002;DHT22;9126;48.160;17.130;2022-08-19T11:55:10;35.40;33.20
18002;DHT22;9126;48.160;17.130;2022-08-19T11:57:37;35.10;33.20
18002;DHT22;9126;48.160;17.130;2022-08-19T12:00:05;35.00;33.20
18002;DHT22;9126;48.160;17.130;2022-08-19T12:02:33;34.80;33.20
18002;DHT22;9126;48.160;17.130;2022-08-19T12:05:00;34.60;33.30
18002;DHT22;9126;48.160;17.130;2022-08-19T12:07:28;34.50;33.60
18002;DHT22;9126;48.160;17.130;2022-08-19T12:10:00;34.30;33.80
18002;DHT22;9126;48.160;17.130;2022-08-19T12:12:27;34.40;34.00
18002;DHT22;9126;48.160;17.130;2022-08-19T12:14:54;34.50;34.10
18002;DHT22;9126;48.160;17.130;2022-08-19T12:17:24;34.50;34.10
18002;DHT22;9126;48.160;17.130;2022-08-19T12:19:51;34.40;34.10
18002;DHT22;9126;48.160;17.130;2022-08-19T12:22:18;34.30;34.20
18002;DHT22;9126;48.160;17.130;2022-08-19T12:24:46;34.20;34.30
18002;DHT22;9126;48.160;17.130;2022-08-19T12:27:15;34.00;34.50
18002;DHT22;9126;48.160;17.130;2022-08-19T12:29:42;33.80;34.90
18002;DHT22;9126;48.160;17.130;2022-08-19T12:32:10;33.70;35.20
18002;DHT22;9126;48.160;17.130;2022-08-19T12:34:38;33.70;35.70
18002;DHT22;9126;48.160;17.130;2022-08-19T12:37:06;33.80;36.10
18002;DHT22;9126;48.160;17.130;2022-08-19T12:39:35;34.00;36.60
18002;DHT22;9126;48.160;17.130;2022-08-19T12:42:03;34.10;35.90
18002;DHT22;9126;48.160;17.130;2022-08-19T12:44:33;34.20;35.70
18002;DHT22;9126;48.160;17.130;2022-08-19T12:47:00;34.20;35.80
18002;DHT22;9126;48.160;17.130;2022-08-19T12:49:28;34.20;35.80
18002;DHT22;9126;48.160;17.130;2022-08-19T12:51:55;34.30;35.70
18002;DHT22;9126;48.160;17.130;2022-08-19T12:54:23;34.80;35.60
18002;DHT22;9126;48.160;17.130;2022-08-19T12:56:50;35.40;35.10
18002;DHT22;9126;48.160;17.130;2022-08-19T12:59:17;36.00;34.60
18002;DHT22;9126;48.160;17.130;2022-08-19T13:01:46;36.30;34.00
18002;DHT22;9126;48.160;17.130;2022-08-19T13:04:15;36.40;33.70
18002;DHT22;9126;48.160;17.130;2022-08-19T13:06:44;36.60;33.50
18002;DHT22;9126;48.160;17.130;2022-08-19T13:09:11;36.40;33.10
18002;DHT22;9126;48.160;17.130;2022-08-19T13:11:39;36.10;33.60
18002;DHT22;9126;48.160;17.130;2022-08-19T13:14:06;35.70;33.20
18002;DHT22;9126;48.160;17.130;2022-08-19T13:16:33;35.50;33.50
18002;DHT22;9126;48.160;17.130;2022-08-19T13:19:01;35.20;33.80
18002;DHT22;9126;48.160;17.130;2022-08-19T13:21:30;34.80;34.10
18002;DHT22;9126;48.160;17.130;2022-08-19T13:23:59;34.50;34.90
18002;DHT22;9126;48.160;17.130;2022-08-19T13:26:26;34.30;34.70
18002;DHT22;9126;48.160;17.130;2022-08-19T13:28:53;34.00;34.90
18002;DHT22;9126;48.160;17.130;2022-08-19T13:31:40;33.90;35.10
18002;DHT22;9126;48.160;17.130;2022-08-19T13:34:31;33.80;35.90
18002;DHT22;9126;48.160;17.130;2022-08-19T13:37:00;33.60;37.10
18002;DHT22;9126;48.160;17.130;2022-08-19T13:39:29;33.50;38.00
18002;DHT22;9126;48.160;17.130;2022-08-19T13:41:56;33.30;38.50
18002;DHT22;9126;48.160;17.130;2022-08-19T13:44:23;33.20;37.80
18002;DHT22;9126;48.160;17.130;2022-08-19T13:46:50;33.10;37.10
18002;DHT22;9126;48.160;17.130;2022-08-19T13:49:18;33.00;36.80
18002;DHT22;9126;48.160;17.130;2022-08-19T13:51:47;33.00;36.90
18002;DHT22;9126;48.160;17.130;2022-08-19T13:54:14;32.90;37.10
18002;DHT22;9126;48.160;17.130;2022-08-19T13:56:42;32.90;37.30
18002;DHT22;9126;48.160;17.130;2022-08-19T13:59:10;32.90;37.50
18002;DHT22;9126;48.160;17.130;2022-08-19T14:01:38;32.80;37.40
18002;DHT22;9126;48.160;17.130;2022-08-19T14:04:05;32.70;37.20
18002;DHT22;9126;48.160;17.130;2022-08-19T14:06:33;32.50;37.00
18002;DHT22;9126;48.160;17.130;2022-08-19T14:09:01;32.30;37.30
18002;DHT22;9126;48.160;17.130;2022-08-19T14:11:29;32.00;37.80
18002;DHT22;9126;48.160;17.130;2022-08-19T14:13:56;31.80;38.30
18002;DHT22;9126;48.160;17.130;2022-08-19T14:16:23;31.70;39.00
18002;DHT22;9126;48.160;17.130;2022-08-19T14:18:50;31.70;40.30
18002;DHT22;9126;48.160;17.130;2022-08-19T14:21:23;31.60;41.10
18002;DHT22;9126;48.160;17.130;2022-08-19T14:23:52;31.40;41.80
18002;DHT22;9126;48.160;17.130;2022-08-19T14:26:23;31.10;42.90
18002;DHT22;9126;48.160;17.130;2022-08-19T14:28:50;30.90;43.60
18002;DHT22;9126;48.160;17.130;2022-08-19T14:31:18;30.70;44.10
18002;DHT22;9126;48.160;17.130;2022-08-19T14:33:46;30.70;44.60
18002;DHT22;9126;48.160;17.130;2022-08-19T14:36:14;30.70;44.90
18002;DHT22;9126;48.160;17.130;2022-08-19T14:38:41;30.80;45.20
18002;DHT22;9126;48.160;17.130;2022-08-19T14:41:11;30.80;45.50
18002;DHT22;9126;48.160;17.130;2022-08-19T14:43:40;30.80;45.90
18002;DHT22;9126;48.160;17.130;2022-08-19T14:46:08;30.90;45.60
18002;DHT22;9126;48.160;17.130;2022-08-19T14:48:35;30.90;45.40
18002;DHT22;9126;48.160;17.130;2022-08-19T14:51:04;30.90;45.70
18002;DHT22;9126;48.160;17.130;2022-08-19T14:53:32;31.00;46.00
18002;DHT22;9126;48.160;17.130;2022-08-19T14:56:00;31.10;46.30
18002;DHT22;9126;48.160;17.130;2022-08-19T14:58:28;31.20;46.50
18002;DHT22;9126;48.160;17.130;2022-08-19T15:00:57;31.40;46.60
18002;DHT22;9126;48.160;17.130;2022-08-19T15:03:24;31.60;46.20
18002;DHT22;9126;48.160;17.130;2022-08-19T15:05:51;32.00;45.50
18002;DHT22;9126;48.160;17.130;2022-08-19T15:08:18;32.50;45.10
18002;DHT22;9126;48.160;17.130;2022-08-19T15:10:49;32.90;44.70
18002;DHT22;9126;48.160;17.130;2022-08-19T15:13:17;33.20;44.30
18002;DHT22;9126;48.160;17.130;2022-08-19T15:15:44;33.20;43.90
18002;DHT22;9126;48.160;17.130;2022-08-19T15:18:14;33.00;44.30
18002;DHT22;9126;48.160;17.130;2022-08-19T15:20:41;32.80;44.00
18002;DHT22;9126;48.160;17.130;2022-08-19T15:23:10;32.80;44.60
18002;DHT22;9126;48.160;17.130;2022-08-19T15:25:37;32.70;45.00
18002;DHT22;9126;48.160;17.130;2022-08-19T15:28:04;32.80;45.40
18002;DHT22;9126;48.160;17.130;2022-08-19T15:30:31;33.10;45.40
18002;DHT22;9126;48.160;17.130;2022-08-19T15:32:59;33.40;45.00
18002;DHT22;9126;48.160;17.130;2022-08-19T15:35:27;33.80;44.70
18002;DHT22;9126;48.160;17.130;2022-08-19T15:37:55;34.10;44.20
18002;DHT22;9126;48.160;17.130;2022-08-19T15:40:23;34.40;43.50
18002;DHT22;9126;48.160;17.130;2022-08-19T15:42:51;34.50;43.00